Glen Cove, NY (11542)

12:08 AM EDT on April 01, 2015 (GMT -0400)
Weir Lane | | Change Station
CLOSE
Current Station
Personal Weather Station
Location: Locust Valley, NY
Elevation: 167 ft
Nearby Weather Stations
Active Advisory: Special Statement

Elev 167 ft 40.88 °N, 73.60 °W | Updated 9 minutes ago

Mostly Cloudy
Mostly Cloudy
34.5 °F
Feels Like 34 °F
N
1.0
Wind Variable Wind from NNW
Gusts 8.0 mph

Today
High -- | Low -- °F
--% Chance of Precip.
Yesterday
High -- | Low -- °F
Precip. -- in
6:38 AM 7:19 PM
Waxing Gibbous, 90% visible
Pressure 29.81 in
Visibility 10.0 miles
Clouds Few 5000 ft
Scattered Clouds 15000 ft
Mostly Cloudy 20000 ft
Windchill 34 °F
Dew Point 33 °F
Humidity 95%
Rainfall in
Snow Depth Not available.
UV 0.0 out of 12
Pollen 6.40 out of 12
Air Quality Not available.
Flu Activity Not available.
METAR KLGA 010351Z 32006KT 10SM FEW050 SCT150 BKN200 03/00 A2981 RMK AO2 SLP093 T00280000

More Conditions Fewer Conditions

Pressure 29.81 in
Visibility 10.0 miles
Clouds Few 5000 ft
Scattered Clouds 15000 ft
Mostly Cloudy 20000 ft
Windchill 34 °F
Dew Point 33 °F
Humidity 95%
Rainfall in
Snow Depth Not available.
UV 0.0 out of 12
Pollen 6.40 out of 12
Air Quality Not available.
Flu Activity Not available.
METAR KLGA 010351Z 32006KT 10SM FEW050 SCT150 BKN200 03/00 A2981 RMK AO2 SLP093 T00280000

More Conditions Fewer Conditions

10-Day Weather Forecast

Almanac

Astronomy

Apr. 01, 2015 Rise Set
Actual Time
Civil Twilight
Nautical Twilight
Astronomical Twilight
Moon
Length of Visible Light
Length of Day
Tomorrow will be .
, % of the Moon is Illuminated

Today's Extremes

State Highs State Lows

Community

WunderPhotos

Upload Photos

1,809,904 photos uploaded!

WunderBlogs® & News

Nearby

Air Quality

  Air Quality AQ Index Pollutant
Not available.

Snow Depth

Station Depth Elevation

Earthquake Activity

City Distance Mag. Time & Date
Minimum magnitude displayed is 2.5.

Coastal Water Temperatures

Place Temperature

Stations

Nearby Weather Stations

Station Location Temp. Windchill Dew Point Humidity Wind Precip. Elev Updated Type
                   
Special Statement
Statement as of 10:24 PM EDT on March 31, 2015

Temperatures will fall below freezing overnight. Patchy black ice
is possible on roadways that became wet from from earlier
precipitation. Please exercise caution when traveling tonight
into early Wednesday morning.